createdAt,value
2022-09-20T00:00:13.380Z,96.46
2022-09-20T00:03:04.967Z,97.01
2022-09-20T00:05:38.140Z,97.70
2022-09-20T00:08:14.096Z,97.70
2022-09-20T00:10:46.338Z,98.07
2022-09-20T00:13:17.911Z,98.61
2022-09-20T00:15:49.524Z,98.07
2022-09-20T00:18:21.261Z,98.85
2022-09-20T00:20:54.158Z,99.46
2022-09-20T00:23:26.048Z,99.22
2022-09-20T00:26:01.779Z,99.23
2022-09-20T00:28:34.698Z,98.97
2022-09-20T00:31:04.948Z,98.36
2022-09-20T00:33:54.676Z,98.80
2022-09-20T00:36:27.267Z,99.54
2022-09-20T00:39:00.653Z,99.62
2022-09-20T00:41:34.154Z,99.00
2022-09-20T00:44:43.761Z,99.23
2022-09-20T00:47:27.692Z,99.81
2022-09-20T00:50:04.154Z,99.34
2022-09-20T00:52:37.292Z,99.28
2022-09-20T00:55:11.321Z,98.80
2022-09-20T00:57:43.641Z,98.40
2022-09-20T01:00:16.703Z,98.64
2022-09-20T01:02:53.005Z,99.04
2022-09-20T01:05:25.400Z,99.25
2022-09-20T01:07:57.972Z,99.26
2022-09-20T01:10:29.887Z,99.26
2022-09-20T01:13:01.575Z,99.86
2022-09-20T01:15:35.256Z,99.76
2022-09-20T01:18:10.543Z,99.99
2022-09-20T01:20:45.111Z,99.98
2022-09-20T01:23:32.429Z,99.98
2022-09-20T01:26:33.854Z,99.98
2022-09-20T01:29:14.435Z,99.42
2022-09-20T01:31:51.539Z,98.98
2022-09-20T01:34:30.560Z,99.94
2022-09-20T01:37:11.670Z,100.00
2022-09-20T01:39:51.028Z,100.00
2022-09-20T01:42:30.742Z,100.00
2022-09-20T01:45:07.988Z,99.79
2022-09-20T01:47:50.017Z,99.88
2022-09-20T01:50:32.569Z,99.62
2022-09-20T01:53:38.090Z,99.26
2022-09-20T01:56:32.401Z,99.16
2022-09-20T01:59:24.014Z,99.17
2022-09-20T02:02:24.908Z,99.07
2022-09-20T02:05:29.518Z,99.40
2022-09-20T02:08:25.075Z,99.00
2022-09-20T02:11:14.561Z,99.15
2022-09-20T02:13:59.464Z,99.30
2022-09-20T02:16:44.876Z,99.95
2022-09-20T02:19:42.204Z,99.79
2022-09-20T02:22:38.420Z,99.91
2022-09-20T02:25:23.178Z,100.00
2022-09-20T02:28:10.671Z,100.00
2022-09-20T02:30:54.038Z,100.00
2022-09-20T02:33:53.668Z,100.00
2022-09-20T02:36:41.385Z,100.00
2022-09-20T02:39:20.807Z,100.00
2022-09-20T02:42:01.784Z,100.00
2022-09-20T02:44:48.037Z,100.00
2022-09-20T02:47:28.821Z,100.00
2022-09-20T02:50:19.950Z,100.00
2022-09-20T02:53:06.701Z,100.00
2022-09-20T02:55:48.283Z,100.00
2022-09-20T02:58:33.118Z,100.00
2022-09-20T03:01:14.147Z,99.88
2022-09-20T03:03:57.348Z,99.95
2022-09-20T03:06:41.249Z,100.00
2022-09-20T03:09:20.340Z,99.92
2022-09-20T03:12:05.654Z,99.34
2022-09-20T03:14:43.408Z,98.69
2022-09-20T03:17:24.648Z,98.80
2022-09-20T03:20:14.501Z,98.32
2022-09-20T03:22:55.828Z,98.82
2022-09-20T03:25:51.289Z,98.65
2022-09-20T03:28:43.813Z,98.10
2022-09-20T03:31:24.477Z,98.67
2022-09-20T03:34:07.477Z,98.49
2022-09-20T03:36:57.653Z,98.68
2022-09-20T03:40:04.518Z,99.11
2022-09-20T03:42:42.483Z,99.88
2022-09-20T03:45:38.190Z,99.96
2022-09-20T03:48:30.644Z,100.00
2022-09-20T03:51:09.192Z,100.00
2022-09-20T03:54:06.179Z,99.99
2022-09-20T03:57:12.784Z,100.00
2022-09-20T04:00:04.857Z,99.49
2022-09-20T04:02:54.458Z,99.39
2022-09-20T04:05:35.469Z,98.64
2022-09-20T04:08:18.737Z,98.72
2022-09-20T04:11:03.061Z,98.92
2022-09-20T04:13:39.056Z,99.78
2022-09-20T04:16:26.759Z,99.73
2022-09-20T04:19:04.253Z,100.00
2022-09-20T04:21:40.590Z,99.69
2022-09-20T04:24:21.327Z,100.00
2022-09-20T04:26:57.920Z,99.81
2022-09-20T04:29:37.930Z,99.66
2022-09-20T04:32:19.520Z,99.30
2022-09-20T04:35:24.224Z,99.59
2022-09-20T04:37:56.999Z,99.03
2022-09-20T04:40:39.459Z,98.12
2022-09-20T04:44:06.537Z,98.63
2022-09-20T04:47:26.164Z,98.87
2022-09-20T04:50:31.136Z,99.08
2022-09-20T04:53:34.830Z,99.09
2022-09-20T04:56:20.660Z,99.04
2022-09-20T04:59:07.882Z,99.08
2022-09-20T05:02:13.270Z,98.70
2022-09-20T05:05:15.601Z,98.92
2022-09-20T05:11:15.498Z,99.29
2022-09-20T05:14:08.196Z,99.97
2022-09-20T05:16:58.620Z,100.00
2022-09-20T05:19:35.666Z,100.00
2022-09-20T05:22:42.776Z,100.00
2022-09-20T05:25:42.304Z,100.00
2022-09-20T05:28:23.190Z,100.00
2022-09-20T05:31:00.241Z,100.00
2022-09-20T05:33:40.765Z,100.00
2022-09-20T05:36:20.513Z,100.00
2022-09-20T05:39:02.779Z,100.00
2022-09-20T05:41:42.358Z,100.00
2022-09-20T05:44:31.146Z,100.00
2022-09-20T05:47:13.191Z,100.00
2022-09-20T05:49:57.037Z,100.00
2022-09-20T05:52:47.610Z,100.00
2022-09-20T05:55:35.280Z,100.00
2022-09-20T05:58:23.641Z,100.00
2022-09-20T06:01:00.817Z,100.00
2022-09-20T06:03:40.926Z,100.00
2022-09-20T06:06:23.055Z,100.00
2022-09-20T06:09:16.972Z,100.00
2022-09-20T06:12:09.752Z,100.00
2022-09-20T06:14:50.840Z,100.00
2022-09-20T06:17:29.263Z,100.00
2022-09-20T06:20:16.423Z,100.00
2022-09-20T06:22:50.828Z,100.00
2022-09-20T06:25:27.755Z,100.00
2022-09-20T06:28:07.102Z,100.00
2022-09-20T06:30:45.696Z,100.00
2022-09-20T06:33:20.346Z,100.00
2022-09-20T06:35:59.157Z,100.00
2022-09-20T06:39:08.874Z,100.00
2022-09-20T06:41:42.093Z,100.00
2022-09-20T06:44:16.284Z,100.00
2022-09-20T06:46:48.196Z,100.00
2022-09-20T06:49:19.841Z,100.00
2022-09-20T06:51:52.199Z,100.00
2022-09-20T06:54:25.204Z,100.00
2022-09-20T06:56:57.062Z,100.00
2022-09-20T06:59:29.492Z,100.00
2022-09-20T07:02:01.232Z,100.00
2022-09-20T07:04:32.963Z,100.00
2022-09-20T07:07:09.242Z,100.00
2022-09-20T07:09:41.347Z,100.00
2022-09-20T07:12:13.133Z,100.00
2022-09-20T07:14:44.738Z,100.00
2022-09-20T07:17:16.317Z,100.00
2022-09-20T07:19:50.837Z,100.00
2022-09-20T07:22:22.469Z,100.00
2022-09-20T07:24:54.144Z,100.00
2022-09-20T07:27:29.217Z,100.00
2022-09-20T07:30:02.540Z,100.00
2022-09-20T07:32:34.484Z,100.00
2022-09-20T07:35:07.384Z,99.29
2022-09-20T07:37:41.228Z,98.87
2022-09-20T07:40:14.766Z,98.87
2022-09-20T07:42:46.482Z,98.62
2022-09-20T07:45:18.246Z,98.47
2022-09-20T07:47:50.653Z,98.17
2022-09-20T07:50:22.571Z,97.74
2022-09-20T07:52:56.747Z,97.34
2022-09-20T07:55:28.814Z,97.70
2022-09-20T07:58:00.568Z,97.66
2022-09-20T08:00:32.376Z,96.35
2022-09-20T08:03:06.031Z,95.86
2022-09-20T08:05:37.736Z,95.56
2022-09-20T08:08:09.624Z,95.42
2022-09-20T08:10:41.541Z,95.37
2022-09-20T08:16:07.523Z,94.45
2022-09-20T08:18:44.377Z,93.44
2022-09-20T08:21:16.427Z,93.56
2022-09-20T08:23:49.564Z,92.98
2022-09-20T08:26:26.867Z,92.95
2022-09-20T08:29:01.198Z,92.88
2022-09-20T08:31:37.107Z,92.23
2022-09-20T08:34:10.979Z,91.83
2022-09-20T08:36:46.865Z,92.07
2022-09-20T08:42:20.770Z,91.00
2022-09-20T08:44:58.821Z,90.99
2022-09-20T08:47:33.512Z,90.78
2022-09-20T08:50:10.200Z,90.31
2022-09-20T08:52:45.619Z,90.39
2022-09-20T08:55:20.717Z,90.14
2022-09-20T08:57:55.852Z,90.07
2022-09-20T09:00:31.849Z,89.97
2022-09-20T09:03:07.670Z,89.30
2022-09-20T09:05:44.114Z,88.61
2022-09-20T09:08:18.445Z,89.07
2022-09-20T09:10:54.604Z,88.53
2022-09-20T09:13:32.953Z,87.58
2022-09-20T09:16:11.837Z,88.13
2022-09-20T09:18:46.826Z,88.22
2022-09-20T09:21:23.739Z,88.26
2022-09-20T09:24:05.507Z,86.92
2022-09-20T09:26:41.396Z,86.64
2022-09-20T09:29:19.068Z,86.70
2022-09-20T09:31:52.603Z,86.42
2022-09-20T09:34:30.171Z,85.47
2022-09-20T09:37:02.208Z,85.22
2022-09-20T09:39:38.086Z,84.91
2022-09-20T09:42:24.660Z,82.93
2022-09-20T09:45:13.853Z,81.67
2022-09-20T09:47:46.082Z,81.96
2022-09-20T09:50:26.929Z,82.27
2022-09-20T09:53:04.599Z,81.58
2022-09-20T09:56:07.954Z,81.58
2022-09-20T09:58:55.705Z,78.42
2022-09-20T10:01:38.333Z,77.85
2022-09-20T10:04:18.981Z,77.09
2022-09-20T10:06:55.452Z,77.94
2022-09-20T10:09:46.635Z,76.94
2022-09-20T10:12:36.926Z,76.91
2022-09-20T10:15:26.869Z,75.25
2022-09-20T10:18:09.777Z,73.74
2022-09-20T10:20:55.869Z,72.85
2022-09-20T10:27:09.160Z,70.87
2022-09-20T10:29:53.744Z,69.39
2022-09-20T10:32:36.025Z,69.21
2022-09-20T10:35:25.988Z,68.17
2022-09-20T10:38:15.894Z,69.37
2022-09-20T10:41:21.713Z,70.03
2022-09-20T10:44:33.470Z,69.82
2022-09-20T10:47:15.056Z,70.19
2022-09-20T10:49:57.835Z,69.38
2022-09-20T10:52:54.727Z,67.22
2022-09-20T10:55:35.893Z,66.60
2022-09-20T10:58:36.046Z,64.50
2022-09-20T11:01:18.301Z,63.42
2022-09-20T11:04:07.610Z,64.34
2022-09-20T11:06:51.688Z,63.22
2022-09-20T11:09:25.896Z,62.44
2022-09-20T11:12:04.635Z,61.37
2022-09-20T11:14:40.510Z,59.28
2022-09-20T11:17:17.562Z,59.39
2022-09-20T11:19:57.454Z,62.35
2022-09-20T11:22:32.972Z,61.30
2022-09-20T11:25:16.753Z,59.12
2022-09-20T11:27:56.574Z,58.00
2022-09-20T11:30:30.051Z,57.53
2022-09-20T11:33:08.623Z,58.00
2022-09-20T11:35:46.030Z,57.89
2022-09-20T11:38:24.898Z,58.45
2022-09-20T11:41:02.536Z,57.42
2022-09-20T11:43:35.719Z,58.83
2022-09-20T11:46:13.091Z,59.49
2022-09-20T11:48:51.040Z,58.70
2022-09-20T11:52:01.403Z,58.86
2022-09-20T11:55:01.914Z,58.81
2022-09-20T11:57:34.433Z,58.59
2022-09-20T12:00:10.122Z,56.92
2022-09-20T12:02:51.256Z,56.57
2022-09-20T12:05:33.911Z,57.34
2022-09-20T12:08:09.736Z,57.47
2022-09-20T12:10:42.885Z,59.36
2022-09-20T12:13:25.408Z,60.85
2022-09-20T12:16:04.664Z,62.09
2022-09-20T12:19:02.051Z,63.88
2022-09-20T12:21:54.024Z,66.62
2022-09-20T12:24:26.209Z,69.58
2022-09-20T12:27:00.081Z,71.67
2022-09-20T12:30:03.755Z,72.11
2022-09-20T12:32:51.936Z,71.60
2022-09-20T12:36:00.541Z,71.51
2022-09-20T12:38:46.442Z,71.46
2022-09-20T12:41:27.827Z,71.50
2022-09-20T12:44:05.220Z,70.60
2022-09-20T12:46:43.917Z,69.73
2022-09-20T12:49:58.048Z,68.35
2022-09-20T12:52:53.746Z,67.38
2022-09-20T12:55:55.288Z,67.37
2022-09-20T12:58:44.365Z,66.77
2022-09-20T13:01:38.170Z,65.93
2022-09-20T13:04:53.300Z,64.33
2022-09-20T13:08:03.869Z,63.91
2022-09-20T13:10:43.088Z,63.94
2022-09-20T13:13:37.437Z,65.28
2022-09-20T13:16:20.206Z,65.01
2022-09-20T13:19:01.111Z,64.02
2022-09-20T13:21:34.984Z,63.59
2022-09-20T13:24:08.172Z,62.99
2022-09-20T13:26:48.261Z,61.84
2022-09-20T13:29:28.774Z,59.56
2022-09-20T13:32:18.839Z,58.76
2022-09-20T13:35:08.005Z,57.19
2022-09-20T13:37:43.727Z,56.43
2022-09-20T13:40:21.942Z,57.18
2022-09-20T13:43:19.575Z,57.28
2022-09-20T13:45:48.744Z,57.59
2022-09-20T13:48:20.385Z,56.81
2022-09-20T13:50:53.794Z,56.25
2022-09-20T13:53:40.987Z,56.63
2022-09-20T13:56:18.062Z,57.81
2022-09-20T13:58:51.354Z,57.56
2022-09-20T14:01:28.784Z,57.45
2022-09-20T14:04:06.712Z,58.10
2022-09-20T14:06:38.834Z,59.70
2022-09-20T14:09:26.707Z,59.96
2022-09-20T14:11:59.114Z,61.07
2022-09-20T14:14:32.744Z,60.44
2022-09-20T14:17:08.866Z,60.20
2022-09-20T14:19:43.792Z,60.32
2022-09-20T14:22:21.405Z,60.14
2022-09-20T14:25:20.148Z,60.12
2022-09-20T14:28:07.526Z,60.48
2022-09-20T14:30:39.784Z,59.38
2022-09-20T14:33:19.469Z,59.09
2022-09-20T14:35:53.062Z,57.93
2022-09-20T14:38:27.902Z,58.89
2022-09-20T14:40:59.611Z,59.23
2022-09-20T14:43:34.960Z,59.03
2022-09-20T14:46:11.302Z,59.00
2022-09-20T14:48:45.331Z,59.15
2022-09-20T14:51:26.657Z,58.93
2022-09-20T14:54:25.600Z,58.77
2022-09-20T14:56:58.703Z,58.99
2022-09-20T14:59:37.323Z,58.16
2022-09-20T15:02:15.473Z,58.14
2022-09-20T15:04:55.761Z,59.27
2022-09-20T15:07:28.256Z,57.47
2022-09-20T15:10:00.258Z,56.82
2022-09-20T15:12:32.059Z,58.31
2022-09-20T15:15:03.738Z,58.41
2022-09-20T15:17:35.604Z,57.85
2022-09-20T15:20:13.589Z,57.38
2022-09-20T15:22:45.362Z,58.16
2022-09-20T15:25:20.827Z,57.94
2022-09-20T15:27:52.535Z,58.64
2022-09-20T15:30:24.401Z,59.07
2022-09-20T15:33:00.847Z,58.98
2022-09-20T15:35:34.684Z,58.72
2022-09-20T15:38:08.842Z,58.19
2022-09-20T15:40:41.697Z,58.05
2022-09-20T15:43:16.440Z,58.26
2022-09-20T15:45:52.906Z,58.61
2022-09-20T15:48:27.764Z,58.42
2022-09-20T15:51:05.836Z,59.34
2022-09-20T15:53:40.014Z,58.76
2022-09-20T15:56:19.302Z,58.71
2022-09-20T15:58:53.426Z,59.50
2022-09-20T16:01:25.659Z,59.59
2022-09-20T16:03:58.588Z,60.26
2022-09-20T16:06:32.884Z,59.45
2022-09-20T16:09:05.349Z,59.28
2022-09-20T16:11:38.795Z,59.84
2022-09-20T16:14:10.599Z,59.23
2022-09-20T16:16:42.482Z,59.70
2022-09-20T16:19:21.224Z,59.13
2022-09-20T16:21:57.757Z,59.28
2022-09-20T16:24:33.133Z,59.41
2022-09-20T16:27:07.291Z,59.66
2022-09-20T16:29:39.135Z,59.49
2022-09-20T16:32:10.761Z,59.49
2022-09-20T16:34:42.394Z,59.73
2022-09-20T16:37:16.973Z,60.23
2022-09-20T16:39:48.784Z,60.00
2022-09-20T16:42:20.960Z,59.95
2022-09-20T16:44:52.622Z,60.24
2022-09-20T16:47:24.985Z,60.86
2022-09-20T16:49:58.136Z,61.19
2022-09-20T16:52:29.812Z,61.44
2022-09-20T16:55:03.277Z,61.78
2022-09-20T16:57:36.766Z,61.94
2022-09-20T17:00:16.527Z,62.05
2022-09-20T17:02:49.932Z,61.98
2022-09-20T17:05:21.617Z,62.71
2022-09-20T17:07:53.406Z,63.19
2022-09-20T17:10:27.085Z,63.12
2022-09-20T17:13:00.040Z,64.21
2022-09-20T17:15:31.632Z,65.71
2022-09-20T17:18:05.677Z,64.85
2022-09-20T17:20:40.594Z,64.92
2022-09-20T17:23:12.240Z,64.98
2022-09-20T17:25:46.201Z,64.88
2022-09-20T17:28:17.831Z,65.40
2022-09-20T17:30:49.546Z,66.10
2022-09-20T17:33:21.139Z,65.49
2022-09-20T17:35:54.604Z,65.45
2022-09-20T17:38:26.459Z,64.05
2022-09-20T17:41:08.673Z,62.31
2022-09-20T17:43:42.655Z,62.21
2022-09-20T17:46:17.689Z,61.69
2022-09-20T17:48:54.739Z,61.25
2022-09-20T17:51:29.750Z,61.42
2022-09-20T17:54:02.647Z,61.69
2022-09-20T17:56:33.441Z,62.51
2022-09-20T17:59:07.242Z,63.36
2022-09-20T18:01:40.294Z,63.73
2022-09-20T18:04:12.856Z,64.02
2022-09-20T18:06:48.203Z,64.97
2022-09-20T18:09:21.965Z,65.28
2022-09-20T18:11:54.797Z,65.71
2022-09-20T18:14:25.768Z,66.77
2022-09-20T18:17:01.483Z,67.63
2022-09-20T18:19:34.326Z,67.84
2022-09-20T18:22:06.808Z,68.83
2022-09-20T18:24:38.665Z,70.08
2022-09-20T18:27:11.266Z,70.74
2022-09-20T18:29:43.199Z,71.37
2022-09-20T18:32:17.121Z,71.59
2022-09-20T18:34:51.223Z,71.90
2022-09-20T18:37:23.021Z,72.80
2022-09-20T18:39:54.684Z,72.43
2022-09-20T18:42:26.408Z,72.13
2022-09-20T18:44:58.574Z,72.79
2022-09-20T18:47:31.931Z,72.98
2022-09-20T18:50:03.777Z,72.97
2022-09-20T18:52:38.699Z,73.58
2022-09-20T18:55:14.757Z,73.13
2022-09-20T18:57:47.380Z,73.52
2022-09-20T19:00:20.740Z,73.76
2022-09-20T19:03:10.173Z,73.71
2022-09-20T19:05:49.659Z,74.20
2022-09-20T19:08:34.195Z,73.80
2022-09-20T19:11:12.507Z,73.91
2022-09-20T19:13:48.996Z,74.19
2022-09-20T19:16:23.804Z,74.63
2022-09-20T19:19:18.071Z,74.39
2022-09-20T19:21:58.482Z,74.81
2022-09-20T19:24:46.060Z,74.54
2022-09-20T19:27:18.336Z,74.67
2022-09-20T19:29:51.224Z,75.32
2022-09-20T19:32:26.158Z,75.14
2022-09-20T19:35:01.722Z,75.23
2022-09-20T19:37:41.621Z,76.11
2022-09-20T19:40:31.159Z,76.11
2022-09-20T19:43:20.915Z,76.24
2022-09-20T19:46:01.721Z,76.32
2022-09-20T19:48:39.446Z,76.68
2022-09-20T19:51:14.016Z,77.12
2022-09-20T19:53:47.504Z,77.05
2022-09-20T19:56:27.618Z,77.00
2022-09-20T19:59:01.257Z,77.42
2022-09-20T20:01:32.187Z,77.89
2022-09-20T20:04:05.724Z,78.78
2022-09-20T20:06:43.871Z,79.18
2022-09-20T20:09:24.880Z,79.05
2022-09-20T20:12:04.061Z,79.24
2022-09-20T20:14:46.030Z,79.72
2022-09-20T20:17:31.504Z,80.51
2022-09-20T20:20:16.717Z,80.43
2022-09-20T20:23:24.212Z,80.16
2022-09-20T20:26:03.301Z,80.22
2022-09-20T20:28:35.334Z,81.09
2022-09-20T20:31:12.326Z,82.34
2022-09-20T20:33:44.435Z,81.99
2022-09-20T20:36:17.136Z,82.10
2022-09-20T20:38:52.643Z,82.09
2022-09-20T20:41:24.963Z,82.32
2022-09-20T20:43:57.130Z,82.75
2022-09-20T20:46:29.129Z,83.23
2022-09-20T20:49:01.723Z,82.87
2022-09-20T20:51:33.609Z,82.41
2022-09-20T20:54:06.317Z,82.14
2022-09-20T20:56:38.340Z,82.42
2022-09-20T20:59:10.136Z,82.78
2022-09-20T21:01:44.636Z,83.59
2022-09-20T21:04:18.176Z,84.11
2022-09-20T21:06:50.326Z,83.64
2022-09-20T21:09:22.015Z,84.24
2022-09-20T21:11:53.686Z,84.34
2022-09-20T21:14:25.304Z,84.34
2022-09-20T21:16:57.234Z,84.49
2022-09-20T21:19:29.003Z,85.22
2022-09-20T21:22:00.544Z,85.06
2022-09-20T21:24:32.129Z,85.23
2022-09-20T21:27:04.681Z,84.40
2022-09-20T21:29:36.928Z,84.57
2022-09-20T21:32:08.528Z,85.85
2022-09-20T21:34:41.203Z,85.79
2022-09-20T21:37:12.952Z,85.98
2022-09-20T21:39:45.417Z,86.16
2022-09-20T21:42:17.773Z,85.62
2022-09-20T21:44:49.333Z,86.39
2022-09-20T21:47:20.923Z,86.39
2022-09-20T21:49:52.670Z,87.62
2022-09-20T21:52:24.381Z,86.92
2022-09-20T21:54:56.010Z,87.31
2022-09-20T21:57:28.937Z,86.80
2022-09-20T22:00:01.039Z,86.81
2022-09-20T22:02:34.281Z,87.73
2022-09-20T22:05:06.857Z,87.91
2022-09-20T22:07:38.467Z,87.73
2022-09-20T22:10:11.189Z,87.56
2022-09-20T22:12:42.822Z,87.86
2022-09-20T22:15:14.678Z,87.54
2022-09-20T22:17:46.281Z,87.65
2022-09-20T22:20:18.096Z,87.35
2022-09-20T22:22:49.696Z,87.44
2022-09-20T22:25:21.341Z,87.67
2022-09-20T22:27:53.005Z,88.63
2022-09-20T22:30:24.560Z,89.45
2022-09-20T22:32:56.201Z,89.08
2022-09-20T22:35:27.828Z,89.31
2022-09-20T22:38:00.176Z,89.72
2022-09-20T22:40:31.918Z,89.47
2022-09-20T22:43:03.716Z,90.99
2022-09-20T22:45:35.506Z,90.78
2022-09-20T22:48:07.205Z,90.64
2022-09-20T22:50:38.757Z,90.75
2022-09-20T22:53:10.732Z,90.95
2022-09-20T22:55:42.264Z,91.00
2022-09-20T22:58:13.851Z,90.58
2022-09-20T23:00:48.258Z,90.16
2022-09-20T23:03:19.956Z,90.07
2022-09-20T23:05:52.674Z,90.05
2022-09-20T23:08:25.114Z,90.23
2022-09-20T23:11:04.512Z,90.43
2022-09-20T23:13:36.178Z,91.69
2022-09-20T23:16:15.996Z,91.56
2022-09-20T23:18:48.574Z,91.12
2022-09-20T23:21:20.884Z,91.68
2022-09-20T23:23:57.819Z,92.20
2022-09-20T23:26:31.432Z,92.28
2022-09-20T23:29:04.969Z,91.84
2022-09-20T23:31:39.703Z,91.84
2022-09-20T23:34:13.074Z,92.38
2022-09-20T23:36:45.612Z,92.28
2022-09-20T23:39:17.590Z,92.92
2022-09-20T23:41:51.226Z,93.49
2022-09-20T23:44:24.521Z,93.51
2022-09-20T23:46:56.121Z,92.99
2022-09-20T23:49:27.744Z,93.53
2022-09-20T23:52:00.760Z,93.69
2022-09-20T23:54:32.443Z,92.95
2022-09-20T23:57:04.109Z,93.55
2022-09-20T23:59:35.764Z,92.94
